createdAt,value
2018-12-14T00:01:50.475Z,22.17
2018-12-14T00:04:19.713Z,21.53
2018-12-14T00:06:48.914Z,20.43
2018-12-14T00:09:18.066Z,21.77
2018-12-14T00:11:47.206Z,22.20
2018-12-14T00:14:16.367Z,19.87
2018-12-14T00:16:45.517Z,20.20
2018-12-14T00:19:14.694Z,19.97
2018-12-14T00:21:43.951Z,19.90
2018-12-14T00:24:13.292Z,20.67
2018-12-14T00:26:42.425Z,19.40
2018-12-14T00:29:11.546Z,22.33
2018-12-14T00:31:41.617Z,18.93
2018-12-14T00:34:10.770Z,20.83
2018-12-14T00:36:39.914Z,20.43
2018-12-14T00:39:09.083Z,19.30
2018-12-14T00:41:38.258Z,20.57
2018-12-14T00:44:07.415Z,19.93
2018-12-14T00:46:41.479Z,22.77
2018-12-14T00:49:11.269Z,20.90
2018-12-14T00:51:40.445Z,17.13
2018-12-14T00:54:09.633Z,19.37
2018-12-14T00:56:38.773Z,19.80
2018-12-14T00:59:07.906Z,21.13
2018-12-14T01:01:37.046Z,23.37
2018-12-14T01:04:06.229Z,19.60
2018-12-14T01:06:35.416Z,22.70
2018-12-14T01:09:05.209Z,19.23
2018-12-14T01:11:34.600Z,23.13
2018-12-14T01:14:03.913Z,21.70
2018-12-14T01:16:33.046Z,20.10
2018-12-14T01:19:02.277Z,21.97
2018-12-14T01:21:31.423Z,19.07
2018-12-14T01:24:00.539Z,20.27
2018-12-14T01:26:29.661Z,19.07
2018-12-14T01:28:58.787Z,19.73
2018-12-14T01:31:27.993Z,19.80
2018-12-14T01:33:57.171Z,20.23
2018-12-14T01:36:26.308Z,18.07
2018-12-14T01:38:55.467Z,19.93
2018-12-14T01:41:24.589Z,20.10
2018-12-14T01:43:53.758Z,19.43
2018-12-14T01:46:22.878Z,21.87
2018-12-14T01:48:52.059Z,19.23
2018-12-14T01:51:21.364Z,20.50
2018-12-14T01:53:58.465Z,21.17
2018-12-14T01:56:27.597Z,18.20
2018-12-14T01:58:56.708Z,19.00
2018-12-14T02:01:25.839Z,19.50
2018-12-14T02:03:54.974Z,19.47
2018-12-14T02:06:24.242Z,18.77
2018-12-14T02:08:53.388Z,17.57
2018-12-14T02:11:22.669Z,19.90
2018-12-14T02:13:52.248Z,18.00
2018-12-14T02:16:21.391Z,19.17
2018-12-14T02:18:50.505Z,19.73
2018-12-14T02:21:19.678Z,17.53
2018-12-14T02:23:48.828Z,17.90
2018-12-14T02:26:18.009Z,17.73
2018-12-14T02:28:47.151Z,18.90
2018-12-14T02:31:16.299Z,18.07
2018-12-14T02:33:45.476Z,20.07
2018-12-14T02:36:14.646Z,20.43
2018-12-14T02:38:43.870Z,18.17
2018-12-14T02:41:13.284Z,18.43
2018-12-14T02:43:42.587Z,19.50
2018-12-14T02:46:11.740Z,19.37
2018-12-14T02:48:40.897Z,19.87
2018-12-14T02:51:10.038Z,18.33
2018-12-14T02:53:39.194Z,19.63
2018-12-14T02:56:08.348Z,19.23
2018-12-14T02:58:37.518Z,21.03
2018-12-14T03:01:06.816Z,20.37
2018-12-14T03:03:36.138Z,18.00
2018-12-14T03:06:05.307Z,17.87
2018-12-14T03:08:34.469Z,20.20
2018-12-14T03:11:03.738Z,22.17
2018-12-14T03:13:33.257Z,18.90
2018-12-14T03:16:02.777Z,17.83
2018-12-14T03:18:32.386Z,19.73
2018-12-14T03:21:01.858Z,19.20
2018-12-14T03:23:31.003Z,18.97
2018-12-14T03:26:00.315Z,19.33
2018-12-14T03:28:29.476Z,19.53
2018-12-14T03:30:58.627Z,19.27
2018-12-14T03:33:27.785Z,18.43
2018-12-14T03:35:56.966Z,18.17
2018-12-14T03:38:26.091Z,19.90
2018-12-14T03:40:57.412Z,18.70
2018-12-14T03:43:26.558Z,18.03
2018-12-14T03:45:55.839Z,19.67
2018-12-14T03:48:25.101Z,19.17
2018-12-14T03:50:54.253Z,19.47
2018-12-14T03:53:23.567Z,19.13
2018-12-14T03:55:52.899Z,20.47
2018-12-14T03:58:22.069Z,21.00
2018-12-14T04:00:51.207Z,18.27
2018-12-14T04:03:20.338Z,20.57
2018-12-14T04:05:49.607Z,18.63
2018-12-14T04:08:18.727Z,18.77
2018-12-14T04:10:47.858Z,17.77
2018-12-14T04:13:17.019Z,18.13
2018-12-14T04:15:46.153Z,18.43
2018-12-14T04:18:15.297Z,19.27
2018-12-14T04:20:44.642Z,18.67
2018-12-14T04:23:13.813Z,19.10
2018-12-14T04:25:42.966Z,15.63
2018-12-14T04:28:12.107Z,20.17
2018-12-14T04:30:41.239Z,17.70
2018-12-14T04:33:10.380Z,20.57
2018-12-14T04:35:39.552Z,18.93
2018-12-14T04:38:08.687Z,19.77
2018-12-14T04:40:37.826Z,18.20
2018-12-14T04:43:06.983Z,17.30
2018-12-14T04:45:36.106Z,18.43
2018-12-14T04:48:05.444Z,19.80
2018-12-14T04:50:34.579Z,18.23
2018-12-14T04:53:04.393Z,17.33
2018-12-14T04:55:33.958Z,15.90
2018-12-14T04:58:03.117Z,19.63
2018-12-14T05:00:32.253Z,21.00
2018-12-14T05:03:01.415Z,18.77
2018-12-14T05:05:30.649Z,19.93
2018-12-14T05:07:59.920Z,20.67
2018-12-14T05:10:29.010Z,18.33
2018-12-14T05:12:58.342Z,18.70
2018-12-14T05:15:27.505Z,18.77
2018-12-14T05:17:56.670Z,20.83
2018-12-14T05:20:25.813Z,20.23
2018-12-14T05:22:55.053Z,19.83
2018-12-14T05:25:26.225Z,18.50
2018-12-14T05:27:55.441Z,19.17
2018-12-14T05:30:24.723Z,20.30
2018-12-14T05:32:53.906Z,21.70
2018-12-14T05:35:23.087Z,18.67
2018-12-14T05:37:52.259Z,19.37
2018-12-14T05:40:21.357Z,17.03
2018-12-14T05:42:50.985Z,19.57
2018-12-14T05:45:22.016Z,20.30
2018-12-14T05:47:51.119Z,18.70
2018-12-14T05:50:20.284Z,18.43
2018-12-14T05:52:49.425Z,19.57
2018-12-14T05:55:18.582Z,19.27
2018-12-14T05:57:47.847Z,18.80
2018-12-14T06:00:17.042Z,19.63
2018-12-14T06:02:46.202Z,19.83
2018-12-14T06:05:15.490Z,20.47
2018-12-14T06:07:44.613Z,19.83
2018-12-14T06:10:14.061Z,20.17
2018-12-14T06:12:43.206Z,21.07
2018-12-14T06:15:12.381Z,19.93
2018-12-14T06:17:41.543Z,19.13
2018-12-14T06:20:10.669Z,20.07
2018-12-14T06:22:39.862Z,19.23
2018-12-14T06:25:08.983Z,25.17
2018-12-14T06:27:38.120Z,19.70
2018-12-14T06:30:07.495Z,21.40
2018-12-14T06:32:36.638Z,18.97
2018-12-14T06:35:05.832Z,19.10
2018-12-14T06:37:35.075Z,20.17
2018-12-14T06:40:05.526Z,18.57
2018-12-14T06:42:34.713Z,20.20
2018-12-14T06:45:05.367Z,20.57
2018-12-14T06:47:34.593Z,19.27
2018-12-14T06:50:04.249Z,20.47
2018-12-14T06:52:33.539Z,20.87
2018-12-14T06:55:02.675Z,21.43
2018-12-14T06:57:31.873Z,20.53
2018-12-14T07:00:00.983Z,20.53
2018-12-14T07:02:33.515Z,19.10
2018-12-14T07:05:03.148Z,19.87
2018-12-14T07:07:32.388Z,20.27
2018-12-14T07:10:01.521Z,21.37
2018-12-14T07:12:30.922Z,20.93
2018-12-14T07:15:00.067Z,21.90
2018-12-14T07:17:29.183Z,22.07
2018-12-14T07:19:58.327Z,21.87
2018-12-14T07:22:27.495Z,20.47
2018-12-14T07:24:56.670Z,19.40
2018-12-14T07:27:25.812Z,27.80
2018-12-14T07:29:54.947Z,20.80
2018-12-14T07:32:24.108Z,21.47
2018-12-14T07:34:53.350Z,21.27
2018-12-14T07:37:22.490Z,23.97
2018-12-14T07:39:52.408Z,20.50
2018-12-14T07:42:21.536Z,21.83
2018-12-14T07:44:50.813Z,20.30
2018-12-14T07:47:20.053Z,21.13
2018-12-14T07:49:49.255Z,19.23
2018-12-14T07:52:18.397Z,22.03
2018-12-14T07:54:47.696Z,23.33
2018-12-14T07:57:17.432Z,24.10
2018-12-14T07:59:46.891Z,20.20
2018-12-14T08:02:16.064Z,24.27
2018-12-14T08:04:45.398Z,22.40
2018-12-14T08:07:14.972Z,21.07
2018-12-14T08:09:44.175Z,22.53
2018-12-14T08:12:13.304Z,22.17
2018-12-14T08:14:42.790Z,18.83
2018-12-14T08:17:12.215Z,19.00
2018-12-14T08:19:41.412Z,19.43
2018-12-14T08:22:10.913Z,20.87
2018-12-14T08:24:40.108Z,21.13
2018-12-14T08:27:09.315Z,18.83
2018-12-14T08:29:38.463Z,19.60
2018-12-14T08:32:07.734Z,18.43
2018-12-14T08:34:37.071Z,17.50
2018-12-14T08:37:06.228Z,20.63
2018-12-14T08:39:35.368Z,20.10
2018-12-14T08:42:04.521Z,21.53
2018-12-14T08:44:33.715Z,20.60
2018-12-14T08:47:02.867Z,21.70
2018-12-14T08:49:32.393Z,19.13
2018-12-14T08:52:01.541Z,21.50
2018-12-14T08:54:30.784Z,19.87
2018-12-14T08:56:59.999Z,20.27
2018-12-14T08:59:29.205Z,22.17
2018-12-14T09:01:58.423Z,22.70
2018-12-14T09:04:27.613Z,20.13
2018-12-14T09:06:56.803Z,20.97
2018-12-14T09:09:25.977Z,20.33
2018-12-14T09:11:55.117Z,21.43
2018-12-14T09:14:24.308Z,22.30
2018-12-14T09:16:53.598Z,19.17
2018-12-14T09:19:22.748Z,27.87
2018-12-14T09:21:52.065Z,25.90
2018-12-14T09:24:21.205Z,18.73
2018-12-14T09:26:50.369Z,19.50
2018-12-14T09:29:19.558Z,25.17
2018-12-14T09:31:48.888Z,20.33
2018-12-14T09:34:18.107Z,18.53
2018-12-14T09:36:47.346Z,19.77
2018-12-14T09:39:16.740Z,21.87
2018-12-14T09:41:45.999Z,18.23
2018-12-14T09:44:15.159Z,19.13
2018-12-14T09:46:44.458Z,19.60
2018-12-14T09:49:13.564Z,18.30
2018-12-14T09:51:42.721Z,22.00
2018-12-14T09:54:11.891Z,19.30
2018-12-14T09:56:41.142Z,21.43
2018-12-14T09:59:10.286Z,21.53
2018-12-14T10:01:39.475Z,18.37
2018-12-14T10:04:08.747Z,17.90
2018-12-14T10:06:37.939Z,17.37
2018-12-14T10:09:07.079Z,19.33
2018-12-14T10:11:36.241Z,16.57
2018-12-14T10:14:06.248Z,18.23
2018-12-14T10:16:35.557Z,18.70
2018-12-14T10:19:04.909Z,23.07
2018-12-14T10:21:34.048Z,33.07
2018-12-14T10:24:03.219Z,20.47
2018-12-14T10:26:32.704Z,28.13
2018-12-14T10:29:01.945Z,25.93
2018-12-14T10:31:31.065Z,21.63
2018-12-14T10:34:00.204Z,18.73
2018-12-14T10:36:29.496Z,18.80
2018-12-14T10:38:58.796Z,16.07
2018-12-14T10:41:27.990Z,16.97
2018-12-14T10:43:57.169Z,19.03
2018-12-14T10:46:26.409Z,21.90
2018-12-14T10:48:55.660Z,20.90
2018-12-14T10:51:25.108Z,21.63
2018-12-14T10:53:54.350Z,21.40
2018-12-14T10:56:23.632Z,22.73
2018-12-14T10:58:52.774Z,20.20
2018-12-14T11:01:27.584Z,19.73
2018-12-14T11:03:56.685Z,17.90
2018-12-14T11:06:25.851Z,18.43
2018-12-14T11:08:55.049Z,19.37
2018-12-14T11:11:24.203Z,18.17
2018-12-14T11:13:53.375Z,18.93
2018-12-14T11:16:22.509Z,17.07
2018-12-14T11:18:51.637Z,18.27
2018-12-14T11:21:20.736Z,18.97
2018-12-14T11:23:49.909Z,20.77
2018-12-14T11:26:19.056Z,18.60
2018-12-14T11:28:48.321Z,18.33
2018-12-14T11:31:17.638Z,18.20
2018-12-14T11:33:48.156Z,15.83
2018-12-14T11:36:17.635Z,18.17
2018-12-14T11:38:46.859Z,16.47
2018-12-14T11:41:18.533Z,16.63
2018-12-14T11:43:47.387Z,19.43
2018-12-14T11:46:16.522Z,18.43
2018-12-14T11:48:45.680Z,19.97
2018-12-14T11:51:15.031Z,21.87
2018-12-14T11:53:44.199Z,18.27
2018-12-14T11:56:13.357Z,19.67
2018-12-14T11:58:42.481Z,18.10
2018-12-14T12:01:11.693Z,15.00
2018-12-14T12:03:42.933Z,19.20
2018-12-14T12:06:12.351Z,18.53
2018-12-14T12:08:41.744Z,16.70
2018-12-14T12:11:10.943Z,16.60
2018-12-14T12:13:40.141Z,18.53
2018-12-14T12:16:09.267Z,17.10
2018-12-14T12:18:38.537Z,15.87
2018-12-14T12:21:07.711Z,17.60
2018-12-14T12:23:36.817Z,18.57
2018-12-14T12:26:06.027Z,18.27
2018-12-14T12:28:35.326Z,18.73
2018-12-14T12:31:04.459Z,17.87
2018-12-14T12:33:33.642Z,16.73
2018-12-14T12:36:02.900Z,19.37
2018-12-14T12:38:37.921Z,18.03
2018-12-14T12:41:03.345Z,16.67
2018-12-14T12:43:32.511Z,19.17
2018-12-14T12:46:01.719Z,14.80
2018-12-14T12:48:30.979Z,16.70
2018-12-14T12:51:03.315Z,16.97
2018-12-14T12:53:32.630Z,16.40
2018-12-14T12:56:01.833Z,17.47
2018-12-14T12:58:30.966Z,16.10
2018-12-14T13:01:00.140Z,19.67
2018-12-14T13:03:29.382Z,17.60
2018-12-14T13:05:58.524Z,19.77
2018-12-14T13:08:27.718Z,15.77
2018-12-14T13:10:57.230Z,18.67
2018-12-14T13:13:26.383Z,15.77
2018-12-14T13:15:55.702Z,16.70
2018-12-14T13:18:24.919Z,16.27
2018-12-14T13:20:54.123Z,18.43
2018-12-14T13:23:23.233Z,16.47
2018-12-14T13:25:52.629Z,17.70
2018-12-14T13:28:22.237Z,14.97
2018-12-14T13:30:51.904Z,15.33
2018-12-14T13:33:21.308Z,17.03
2018-12-14T13:35:50.682Z,13.93
2018-12-14T13:38:20.075Z,17.00
2018-12-14T13:40:49.280Z,21.13
2018-12-14T13:43:18.557Z,16.30
2018-12-14T13:45:47.790Z,15.50
2018-12-14T13:55:02.591Z,17.57
2018-12-14T13:57:31.778Z,16.93
2018-12-14T14:00:00.958Z,16.83
2018-12-14T14:02:30.153Z,15.37
2018-12-14T14:04:59.319Z,17.23
2018-12-14T14:07:28.491Z,16.37
2018-12-14T14:09:57.670Z,16.27
2018-12-14T14:12:30.818Z,18.20
2018-12-14T14:14:58.085Z,20.53
2018-12-14T14:17:27.314Z,18.73
2018-12-14T14:19:56.534Z,17.30
2018-12-14T14:22:25.824Z,15.97
2018-12-14T14:24:55.021Z,15.57
2018-12-14T14:27:24.129Z,16.43
2018-12-14T14:29:53.306Z,16.17
2018-12-14T14:32:22.496Z,14.50
2018-12-14T14:34:51.772Z,15.00
2018-12-14T14:37:20.898Z,14.87
2018-12-14T14:39:50.149Z,14.00
2018-12-14T14:42:19.367Z,14.03
2018-12-14T14:44:48.490Z,12.47
2018-12-14T14:47:17.738Z,12.80
2018-12-14T14:49:46.991Z,14.83
2018-12-14T14:52:16.370Z,13.90
2018-12-14T14:54:45.529Z,12.80
2018-12-14T14:57:14.714Z,11.07
2018-12-14T14:59:43.891Z,12.37
2018-12-14T15:02:13.118Z,12.17
2018-12-14T15:04:42.223Z,13.60
2018-12-14T15:07:11.655Z,12.73
2018-12-14T15:09:41.133Z,14.83
2018-12-14T15:12:10.259Z,13.90
2018-12-14T15:14:39.429Z,16.10
2018-12-14T15:17:08.756Z,15.70
2018-12-14T15:19:37.970Z,15.43
2018-12-14T15:22:07.235Z,13.83
2018-12-14T15:24:36.420Z,17.10
2018-12-14T15:27:05.648Z,16.43
2018-12-14T15:29:34.850Z,16.27
2018-12-14T15:32:04.171Z,14.80
2018-12-14T15:34:33.321Z,16.90
2018-12-14T15:37:02.480Z,17.13
2018-12-14T15:39:31.671Z,14.93
2018-12-14T15:42:00.787Z,13.23
2018-12-14T15:44:29.949Z,15.53
2018-12-14T15:46:59.136Z,15.67
2018-12-14T15:49:28.663Z,15.47
2018-12-14T15:51:57.771Z,14.77
2018-12-14T15:54:26.952Z,15.17
2018-12-14T15:56:56.137Z,13.73
2018-12-14T15:59:25.285Z,13.33
2018-12-14T16:01:54.514Z,16.37
2018-12-14T16:04:23.629Z,15.30
2018-12-14T16:06:52.839Z,16.77
2018-12-14T16:09:21.980Z,15.03
2018-12-14T16:11:51.170Z,15.17
2018-12-14T16:14:20.355Z,14.70
2018-12-14T16:16:49.487Z,14.20
2018-12-14T16:19:18.760Z,15.80
2018-12-14T16:21:47.981Z,12.40
2018-12-14T16:24:17.299Z,14.10
2018-12-14T16:26:46.521Z,14.17
2018-12-14T16:29:15.962Z,13.70
2018-12-14T16:31:45.117Z,15.20
2018-12-14T16:34:14.261Z,14.70
2018-12-14T16:36:43.635Z,13.47
2018-12-14T16:39:12.773Z,13.03
2018-12-14T16:41:41.967Z,14.60
2018-12-14T16:44:11.105Z,13.80
2018-12-14T16:46:40.249Z,13.43
2018-12-14T16:49:09.508Z,12.63
2018-12-14T16:51:38.703Z,12.03
2018-12-14T16:54:07.887Z,11.70
2018-12-14T16:56:37.349Z,9.80
2018-12-14T16:59:06.475Z,11.87
2018-12-14T17:01:50.432Z,10.47
2018-12-14T17:04:19.617Z,11.83
2018-12-14T17:06:48.872Z,12.57
2018-12-14T17:09:18.094Z,13.87
2018-12-14T17:11:47.341Z,11.57
2018-12-14T17:14:16.634Z,10.60
2018-12-14T17:16:45.779Z,10.60
2018-12-14T17:19:14.986Z,12.57
2018-12-14T17:21:44.199Z,12.77
2018-12-14T17:24:13.656Z,10.17
2018-12-14T17:26:42.930Z,11.80
2018-12-14T17:29:12.063Z,10.57
2018-12-14T17:31:41.600Z,9.13
2018-12-14T17:34:10.719Z,8.63
2018-12-14T17:36:39.994Z,11.97
2018-12-14T17:39:09.134Z,11.50
2018-12-14T17:41:38.446Z,10.37
2018-12-14T17:44:07.639Z,10.30
2018-12-14T17:46:37.051Z,9.50
2018-12-14T17:49:06.195Z,9.37
2018-12-14T17:51:35.710Z,9.00
2018-12-14T17:54:04.953Z,10.37
2018-12-14T17:56:34.087Z,11.83
2018-12-14T17:59:03.223Z,10.53
2018-12-14T18:01:32.416Z,9.17
2018-12-14T18:04:01.685Z,11.07
2018-12-14T18:06:30.823Z,12.23
2018-12-14T18:09:00.070Z,9.93
2018-12-14T18:11:29.259Z,9.47
2018-12-14T18:13:58.541Z,10.87
2018-12-14T18:16:27.982Z,9.20
2018-12-14T18:18:57.514Z,10.53
2018-12-14T18:21:26.650Z,8.87
2018-12-14T18:23:55.900Z,11.20
2018-12-14T18:26:25.210Z,9.70
2018-12-14T18:28:54.342Z,9.90
2018-12-14T18:31:23.552Z,11.63
2018-12-14T18:33:52.867Z,9.33
2018-12-14T18:36:22.005Z,9.70
2018-12-14T18:38:51.155Z,9.30
2018-12-14T18:41:20.358Z,9.60
2018-12-14T18:43:49.481Z,10.93
2018-12-14T18:46:18.727Z,10.93
2018-12-14T18:48:47.927Z,9.63
2018-12-14T18:51:17.206Z,11.30
2018-12-14T18:53:51.851Z,14.50
2018-12-14T18:56:24.926Z,9.20
2018-12-14T18:58:54.373Z,10.93
2018-12-14T19:01:23.619Z,8.90
2018-12-14T19:03:54.375Z,10.43
2018-12-14T19:06:23.640Z,10.80
2018-12-14T19:08:52.764Z,10.10
2018-12-14T19:11:21.901Z,9.13
2018-12-14T19:13:51.055Z,10.23
2018-12-14T19:16:20.234Z,10.33
2018-12-14T19:18:49.362Z,10.37
2018-12-14T19:21:18.516Z,8.80
2018-12-14T19:23:47.724Z,9.47
2018-12-14T19:26:16.860Z,8.90
2018-12-14T19:28:46.096Z,9.87
2018-12-14T19:31:15.780Z,9.20
2018-12-14T19:33:44.922Z,11.33
2018-12-14T19:36:14.072Z,9.50
2018-12-14T19:38:43.226Z,10.37
2018-12-14T19:41:13.122Z,9.90
2018-12-14T19:43:42.270Z,11.47
2018-12-14T19:46:11.575Z,10.90
2018-12-14T19:48:41.673Z,10.73
2018-12-14T19:51:12.946Z,11.43
2018-12-14T19:53:43.233Z,10.27
2018-12-14T19:56:12.352Z,13.37
2018-12-14T19:58:41.652Z,14.27
2018-12-14T20:01:10.809Z,10.37
2018-12-14T20:03:40.091Z,11.23
2018-12-14T20:06:13.380Z,13.73
2018-12-14T20:08:42.607Z,11.60
2018-12-14T20:11:12.008Z,14.77
2018-12-14T20:13:41.228Z,11.40
2018-12-14T20:16:12.927Z,10.73
2018-12-14T20:18:43.409Z,15.00
2018-12-14T20:21:13.109Z,11.33
2018-12-14T20:23:45.567Z,11.97
2018-12-14T20:26:21.705Z,11.70
2018-12-14T20:28:51.553Z,10.80
2018-12-14T20:31:22.463Z,10.83
2018-12-14T20:33:51.685Z,11.33
2018-12-14T20:36:20.962Z,13.83
2018-12-14T20:38:51.374Z,12.37
2018-12-14T20:41:20.533Z,13.47
2018-12-14T20:43:49.688Z,11.60
2018-12-14T20:46:19.487Z,13.13
2018-12-14T20:48:48.869Z,11.67
2018-12-14T20:51:18.049Z,11.23
2018-12-14T20:53:47.539Z,11.53
2018-12-14T20:56:16.840Z,10.93
2018-12-14T20:58:46.140Z,10.07
2018-12-14T21:01:15.371Z,11.80
2018-12-14T21:03:44.554Z,11.60
2018-12-14T21:06:13.831Z,11.00
2018-12-14T21:08:43.026Z,10.37
2018-12-14T21:11:12.250Z,17.40
2018-12-14T21:13:41.420Z,17.33
2018-12-14T21:16:10.611Z,12.43
2018-12-14T21:18:40.305Z,10.37
2018-12-14T21:21:09.813Z,11.80
2018-12-14T21:23:41.452Z,11.13
2018-12-14T21:26:10.602Z,12.67
2018-12-14T21:28:39.812Z,13.10
2018-12-14T21:31:10.131Z,12.97
2018-12-14T21:33:39.321Z,11.83
2018-12-14T21:36:10.162Z,10.97
2018-12-14T21:38:40.170Z,10.47
2018-12-14T21:41:09.410Z,12.33
2018-12-14T21:43:38.717Z,11.63
2018-12-14T21:46:07.868Z,12.97
2018-12-14T21:48:37.072Z,12.03
2018-12-14T21:51:06.236Z,11.50
2018-12-14T21:53:35.417Z,10.30
2018-12-14T21:56:04.587Z,9.60
2018-12-14T21:58:33.882Z,10.67
2018-12-14T22:01:03.177Z,10.23
2018-12-14T22:03:34.678Z,11.70
2018-12-14T22:06:03.942Z,10.67
2018-12-14T22:08:33.097Z,12.27
2018-12-14T22:11:02.242Z,11.80
2018-12-14T22:13:31.399Z,11.97
2018-12-14T22:16:00.566Z,10.93
2018-12-14T22:18:29.736Z,12.93
2018-12-14T22:20:58.895Z,11.70
2018-12-14T22:23:28.055Z,12.47
2018-12-14T22:25:57.228Z,14.10
2018-12-14T22:28:26.334Z,13.60
2018-12-14T22:30:55.485Z,11.83
2018-12-14T22:33:24.645Z,11.50
2018-12-14T22:35:53.783Z,11.70
2018-12-14T22:38:22.983Z,13.13
2018-12-14T22:40:52.130Z,19.23
2018-12-14T22:43:21.227Z,11.47
2018-12-14T22:45:50.392Z,13.03
2018-12-14T22:48:19.792Z,15.57
2018-12-14T22:50:48.964Z,13.70
2018-12-14T22:53:18.077Z,12.53
2018-12-14T22:55:47.265Z,11.40
2018-12-14T22:58:16.419Z,13.30
2018-12-14T23:00:51.578Z,11.50
2018-12-14T23:03:21.107Z,13.47
2018-12-14T23:05:50.482Z,12.80
2018-12-14T23:08:19.613Z,13.53
2018-12-14T23:10:49.162Z,14.63
2018-12-14T23:13:18.347Z,14.77
2018-12-14T23:15:47.514Z,15.10
2018-12-14T23:18:17.003Z,13.93
2018-12-14T23:20:46.176Z,13.27
2018-12-14T23:23:15.720Z,14.73
2018-12-14T23:25:44.912Z,15.33
2018-12-14T23:28:14.096Z,14.80
2018-12-14T23:30:43.263Z,16.40
2018-12-14T23:33:15.272Z,14.27
2018-12-14T23:35:44.456Z,13.70
2018-12-14T23:38:13.605Z,14.57
2018-12-14T23:40:42.770Z,16.57
2018-12-14T23:43:12.036Z,16.50
2018-12-14T23:45:41.150Z,15.10
2018-12-14T23:48:10.303Z,17.60
2018-12-14T23:50:39.465Z,14.70
2018-12-14T23:53:09.095Z,19.77
2018-12-14T23:55:38.229Z,15.43
2018-12-14T23:58:07.359Z,17.43
